Time;durP1;ratioP1;P1;durP2;ratioP2;P2;SDS_P1;SDS_P2;PMS_P1;PMS_P2;Temp;Humidity;BMP_temperature;BMP_pressure;BME280_temperature;BME280_humidity;BME280_pressure;Samples;Min_cycle;Max_cycle;Signal;HPM_P1;HPM_P2
2021/05/26 00:01:29;;;;;;;2.30;1.23;;;10.10;48.20;;;;;;5071827;28;20459;-78
2021/05/26 00:04:03;;;;;;;2.13;1.30;;;10.10;48.40;;;;;;5067706;28;20477;-78
2021/05/26 00:06:39;;;;;;;4.30;1.93;;;10.10;48.30;;;;;;5066152;28;20490;-78
2021/05/26 00:09:13;;;;;;;2.40;1.23;;;10.10;48.50;;;;;;5064117;28;20528;-78
2021/05/26 00:11:48;;;;;;;4.53;1.47;;;10.10;48.40;;;;;;5072054;28;20440;-78
2021/05/26 00:14:23;;;;;;;6.40;1.47;;;10.10;48.40;;;;;;5067525;28;20472;-78
2021/05/26 00:16:58;;;;;;;3.13;1.60;;;10.20;48.40;;;;;;5066525;28;20580;-78
2021/05/26 00:19:33;;;;;;;2.53;1.40;;;10.10;48.40;;;;;;5070187;28;20539;-78
2021/05/26 00:22:09;;;;;;;2.13;1.63;;;10.10;48.60;;;;;;5066882;28;20465;-77
2021/05/26 00:24:44;;;;;;;2.53;1.80;;;10.20;48.70;;;;;;5070499;28;20444;-78
2021/05/26 00:27:19;;;;;;;5.90;1.93;;;10.10;48.80;;;;;;5069458;28;20497;-78
2021/05/26 00:29:53;;;;;;;4.67;1.50;;;10.10;48.80;;;;;;5063243;28;20472;-78
2021/05/26 00:32:28;;;;;;;5.73;2.20;;;10.10;49.10;;;;;;5066115;28;21004;-79
2021/05/26 00:35:03;;;;;;;4.50;1.80;;;10.10;49.10;;;;;;5070631;28;20482;-78
2021/05/26 00:37:39;;;;;;;4.30;1.60;;;10.10;49.20;;;;;;5075298;28;20454;-78
2021/05/26 00:40:14;;;;;;;3.07;1.90;;;10.10;49.20;;;;;;5079584;28;20475;-79
2021/05/26 00:42:50;;;;;;;4.73;1.80;;;10.00;49.30;;;;;;5077708;28;20455;-78
2021/05/26 00:45:24;;;;;;;2.60;2.17;;;9.90;50.20;;;;;;5079269;28;20452;-78
2021/05/26 00:47:59;;;;;;;1.83;1.40;;;9.90;50.40;;;;;;5079653;28;20450;-78
2021/05/26 00:50:36;;;;;;;2.73;1.53;;;9.90;50.30;;;;;;5081039;28;20445;-79
2021/05/26 00:53:13;;;;;;;6.80;1.77;;;9.80;50.30;;;;;;5071105;28;20453;-79
2021/05/26 00:55:48;;;;;;;3.80;1.60;;;9.80;50.40;;;;;;5068733;28;20505;-79
2021/05/26 00:58:24;;;;;;;1.57;1.30;;;9.80;50.50;;;;;;5070515;28;20448;-78
2021/05/26 01:00:59;;;;;;;3.10;1.77;;;9.80;50.50;;;;;;5069661;28;20570;-79
2021/05/26 01:03:35;;;;;;;2.13;1.30;;;9.80;50.30;;;;;;5075938;28;20443;-78
2021/05/26 01:06:15;;;;;;;2.37;1.20;;;9.90;50.40;;;;;;5079203;28;20482;-79
2021/05/26 01:08:56;;;;;;;1.77;1.20;;;9.80;50.10;;;;;;5078967;28;20951;-78
2021/05/26 01:11:31;;;;;;;3.77;1.60;;;9.90;50.30;;;;;;5083380;28;20812;-78
2021/05/26 01:14:05;;;;;;;5.00;1.40;;;9.90;50.20;;;;;;5074670;28;20467;-79
2021/05/26 01:16:40;;;;;;;2.33;1.30;;;9.90;50.20;;;;;;5072250;28;20444;-79
2021/05/26 01:19:16;;;;;;;2.37;1.43;;;9.80;50.10;;;;;;5075015;28;20440;-78
2021/05/26 01:21:55;;;;;;;5.10;1.50;;;9.80;50.30;;;;;;5072360;28;20448;-79
2021/05/26 01:24:30;;;;;;;4.70;1.90;;;9.70;50.70;;;;;;5074983;28;20502;-78
2021/05/26 01:27:10;;;;;;;2.80;1.90;;;9.60;51.00;;;;;;5074046;28;20459;-78
2021/05/26 01:29:54;;;;;;;5.73;2.10;;;9.50;50.90;;;;;;5068095;28;20483;-79
2021/05/26 01:32:34;;;;;;;2.50;1.83;;;9.40;50.90;;;;;;5074060;28;20564;-78
2021/05/26 01:35:10;;;;;;;5.13;1.90;;;9.40;51.10;;;;;;5073061;28;20468;-79
2021/05/26 01:37:50;;;;;;;5.20;2.37;;;9.30;51.30;;;;;;5071776;28;20514;-79
2021/05/26 01:40:26;;;;;;;1.80;1.53;;;9.30;51.30;;;;;;5074152;28;20479;-78
2021/05/26 01:43:00;;;;;;;3.80;2.33;;;9.20;51.60;;;;;;5071348;28;20444;-78
2021/05/26 01:45:35;;;;;;;3.20;1.50;;;9.20;51.60;;;;;;5075938;28;20531;-78
2021/05/26 01:50:57;;;;;;;2.30;1.53;;;9.30;51.90;;;;;;5066897;28;20447;-80
2021/05/26 01:53:34;;;;;;;3.70;1.60;;;9.40;51.90;;;;;;5076324;28;20543;-78
2021/05/26 01:56:16;;;;;;;4.70;1.70;;;9.40;51.70;;;;;;5074504;28;20448;-79
2021/05/26 01:59:01;;;;;;;2.90;1.40;;;9.50;51.90;;;;;;5072740;28;20475;-78
2021/05/26 02:01:36;;;;;;;3.20;1.60;;;9.40;51.90;;;;;;5072090;28;20536;-79
2021/05/26 02:04:11;;;;;;;2.10;1.23;;;9.40;51.70;;;;;;5078478;28;20457;-79
2021/05/26 02:07:02;;;;;;;1.87;1.40;;;9.50;51.90;;;;;;5068210;28;20865;-79
2021/05/26 02:09:35;;;;;;;2.30;1.73;;;9.50;51.70;;;;;;5066377;28;20476;-78
2021/05/26 02:12:23;;;;;;;1.30;1.20;;;9.50;51.80;;;;;;5063640;28;20449;-79
2021/05/26 02:14:59;;;;;;;3.03;1.60;;;9.50;51.80;;;;;;5070952;28;20571;-79
2021/05/26 02:17:31;;;;;;;2.20;1.50;;;9.50;51.90;;;;;;5067558;28;20829;-79
2021/05/26 02:20:06;;;;;;;3.50;1.63;;;9.50;51.80;;;;;;5066941;28;20472;-78
2021/05/26 02:22:41;;;;;;;2.10;1.53;;;9.50;51.90;;;;;;5074616;28;20503;-79
2021/05/26 02:25:17;;;;;;;2.80;1.33;;;9.50;52.00;;;;;;5069338;28;20509;-79
2021/05/26 02:27:52;;;;;;;4.70;1.90;;;9.50;51.90;;;;;;5070478;28;20535;-79
2021/05/26 02:30:27;;;;;;;5.27;1.60;;;9.50;52.00;;;;;;5071817;28;20452;-79
2021/05/26 02:33:02;;;;;;;2.70;1.53;;;9.50;52.00;;;;;;5070206;28;20865;-79
2021/05/26 02:35:37;;;;;;;4.33;2.03;;;9.50;52.30;;;;;;5068519;28;20499;-79
2021/05/26 02:38:11;;;;;;;2.90;1.83;;;9.50;52.20;;;;;;5069554;28;20479;-79
2021/05/26 02:40:55;;;;;;;4.30;1.67;;;9.50;52.30;;;;;;5071153;28;20482;-80
2021/05/26 02:43:30;;;;;;;2.03;1.30;;;9.50;52.60;;;;;;5071734;28;20457;-80
2021/05/26 02:46:04;;;;;;;2.27;1.60;;;9.50;52.30;;;;;;5074537;28;20481;-79
2021/05/26 02:48:39;;;;;;;4.60;1.73;;;9.60;52.50;;;;;;5067888;28;20518;-79
2021/05/26 02:51:14;;;;;;;2.63;1.73;;;9.50;52.30;;;;;;5074230;28;21030;-77
2021/05/26 02:53:49;;;;;;;1.90;1.33;;;9.50;52.30;;;;;;5068378;28;20476;-77
2021/05/26 02:56:24;;;;;;;5.10;1.90;;;9.50;52.30;;;;;;5072176;28;20472;-78
2021/05/26 02:59:00;;;;;;;2.83;1.33;;;9.60;52.50;;;;;;5064905;28;20979;-78
2021/05/26 03:01:44;;;;;;;2.93;1.63;;;9.50;52.40;;;;;;5074724;28;20954;-79
2021/05/26 03:04:24;;;;;;;2.97;1.73;;;9.50;52.50;;;;;;5101788;28;20459;-79
2021/05/26 03:07:00;;;;;;;2.53;1.57;;;9.60;52.50;;;;;;5074305;28;20521;-79
2021/05/26 03:09:35;;;;;;;4.83;1.80;;;9.60;52.50;;;;;;5066891;28;20512;-78
2021/05/26 03:12:11;;;;;;;1.53;1.40;;;9.60;52.40;;;;;;5073899;28;20760;-78
2021/05/26 03:14:45;;;;;;;3.07;1.87;;;9.60;52.50;;;;;;5071373;28;20472;-78
2021/05/26 03:17:23;;;;;;;6.50;2.13;;;9.70;52.50;;;;;;5067795;28;20964;-79
2021/05/26 03:20:04;;;;;;;5.27;2.20;;;9.70;52.60;;;;;;5066567;28;21116;-78
2021/05/26 03:22:38;;;;;;;3.43;1.97;;;9.80;52.20;;;;;;5068401;28;20447;-78
2021/05/26 03:25:15;;;;;;;2.73;1.80;;;9.80;52.00;;;;;;5068528;28;20455;-78
2021/05/26 03:27:50;;;;;;;2.80;1.60;;;9.80;52.00;;;;;;5068066;28;20474;-79
2021/05/26 03:30:27;;;;;;;8.10;1.77;;;9.80;52.30;;;;;;5067148;28;20449;-77
2021/05/26 03:33:01;;;;;;;6.10;1.60;;;9.90;53.60;;;;;;5069015;28;20448;-78
2021/05/26 03:35:36;;;;;;;3.40;2.10;;;9.90;53.50;;;;;;5065047;28;20472;-79
2021/05/26 03:38:17;;;;;;;2.10;1.63;;;9.90;54.20;;;;;;5062966;28;20441;-80
2021/05/26 03:40:51;;;;;;;7.57;1.90;;;9.80;54.90;;;;;;5067133;28;20588;-80
2021/05/26 03:43:27;;;;;;;3.93;1.83;;;9.70;55.90;;;;;;5074851;28;20902;-79
2021/05/26 03:46:02;;;;;;;1.80;1.60;;;9.70;56.20;;;;;;5069472;28;20861;-78
2021/05/26 03:48:37;;;;;;;2.43;1.43;;;9.70;56.80;;;;;;5065530;28;20463;-78
2021/05/26 03:51:11;;;;;;;2.10;1.40;;;9.60;57.20;;;;;;5069277;28;20827;-78
2021/05/26 03:53:46;;;;;;;2.53;1.40;;;9.60;58.00;;;;;;5069617;28;20503;-78
2021/05/26 03:56:22;;;;;;;1.90;1.43;;;9.60;58.30;;;;;;5068888;28;20475;-79
2021/05/26 03:58:58;;;;;;;3.17;1.60;;;9.60;58.70;;;;;;5072215;28;20494;-78
2021/05/26 04:01:33;;;;;;;2.70;1.70;;;9.60;59.40;;;;;;5068122;28;20459;-76
2021/05/26 04:04:07;;;;;;;3.40;1.60;;;9.50;60.40;;;;;;5075942;28;20549;-78
2021/05/26 04:06:42;;;;;;;2.00;1.50;;;9.60;60.80;;;;;;5065149;28;21200;-79
2021/05/26 04:09:19;;;;;;;4.90;1.87;;;9.70;62.40;;;;;;5070886;28;20448;-79
2021/05/26 04:11:54;;;;;;;4.13;1.60;;;9.70;62.50;;;;;;5077267;28;21232;-80
2021/05/26 04:14:30;;;;;;;3.47;1.47;;;9.80;62.50;;;;;;5083068;28;20460;-79
2021/05/26 04:17:04;;;;;;;2.80;1.80;;;9.70;63.20;;;;;;5076204;28;20445;-79
2021/05/26 04:19:39;;;;;;;2.50;1.53;;;9.80;63.00;;;;;;5073047;28;20467;-79
2021/05/26 04:22:14;;;;;;;3.57;1.70;;;9.80;63.50;;;;;;5082482;28;20455;-78
2021/05/26 04:24:49;;;;;;;2.10;1.63;;;9.80;63.00;;;;;;5088620;28;20792;-79
2021/05/26 04:27:24;;;;;;;5.00;2.37;;;9.90;63.10;;;;;;5078493;28;20456;-79
2021/05/26 04:30:01;;;;;;;3.37;1.80;;;9.90;62.50;;;;;;5080870;28;21013;-79
2021/05/26 04:32:36;;;;;;;2.73;1.97;;;9.90;63.50;;;;;;5070183;28;20552;-78
2021/05/26 04:35:12;;;;;;;6.40;1.90;;;10.00;61.90;;;;;;5067275;28;20482;-78
2021/05/26 04:37:47;;;;;;;3.43;1.80;;;10.00;61.90;;;;;;5069246;28;20650;-79
2021/05/26 04:40:22;;;;;;;5.17;1.60;;;10.10;61.90;;;;;;5069679;28;20471;-79
2021/05/26 04:42:57;;;;;;;3.73;2.20;;;10.10;62.00;;;;;;5072673;28;20530;-80
2021/05/26 04:45:33;;;;;;;6.10;1.90;;;10.10;62.20;;;;;;5070065;28;20451;-78
2021/05/26 04:48:08;;;;;;;5.43;2.30;;;10.30;61.70;;;;;;5068988;28;20475;-78
2021/05/26 04:50:43;;;;;;;2.57;1.63;;;10.40;61.80;;;;;;5073234;28;20436;-78
2021/05/26 04:53:17;;;;;;;2.40;1.80;;;10.40;62.40;;;;;;5071658;28;20455;-78
2021/05/26 04:55:52;;;;;;;3.47;1.70;;;10.30;62.10;;;;;;5070796;28;20584;-80
2021/05/26 04:58:27;;;;;;;2.83;1.63;;;10.30;62.00;;;;;;5070797;28;22346;-79
2021/05/26 05:01:03;;;;;;;2.87;1.80;;;10.50;62.10;;;;;;5067156;28;20448;-79
2021/05/26 05:03:37;;;;;;;3.90;2.67;;;10.70;62.30;;;;;;5071280;28;20452;-79
2021/05/26 05:06:12;;;;;;;2.20;1.70;;;10.90;61.70;;;;;;5066748;28;20456;-79
2021/05/26 05:08:47;;;;;;;2.13;1.67;;;11.10;61.80;;;;;;5062770;28;20504;-79
2021/05/26 05:11:23;;;;;;;3.43;1.83;;;11.00;61.80;;;;;;5068007;28;20543;-79
2021/05/26 05:13:58;;;;;;;4.57;2.13;;;11.00;61.80;;;;;;5067689;28;20476;-81
2021/05/26 05:16:34;;;;;;;3.67;1.83;;;10.80;62.20;;;;;;5069761;28;20440;-78
2021/05/26 05:19:09;;;;;;;4.63;1.70;;;10.60;62.20;;;;;;5063546;28;20449;-80
2021/05/26 05:21:43;;;;;;;3.57;1.63;;;10.70;63.50;;;;;;5072138;28;20532;-80
2021/05/26 05:24:18;;;;;;;2.30;1.60;;;10.70;64.00;;;;;;5071140;28;20489;-80
2021/05/26 05:26:52;;;;;;;5.20;1.70;;;10.70;64.00;;;;;;5066400;28;20460;-80
2021/05/26 05:29:27;;;;;;;2.43;1.53;;;10.70;63.70;;;;;;5072430;28;20484;-79
2021/05/26 05:32:04;;;;;;;1.77;1.40;;;10.90;63.60;;;;;;5074497;28;20516;-78
2021/05/26 05:34:38;;;;;;;4.40;1.93;;;11.00;63.40;;;;;;5073760;28;20987;-82
2021/05/26 05:37:13;;;;;;;3.70;1.93;;;11.10;63.40;;;;;;5071258;28;20518;-79
2021/05/26 05:39:48;;;;;;;4.40;1.73;;;11.30;62.90;;;;;;5074290;28;20495;-81
2021/05/26 05:42:23;;;;;;;3.10;1.73;;;11.60;63.00;;;;;;5072392;28;20487;-81
2021/05/26 05:44:57;;;;;;;2.10;1.60;;;11.70;61.80;;;;;;5071194;28;20506;-80
2021/05/26 05:47:34;;;;;;;4.27;1.90;;;11.80;61.90;;;;;;5071066;28;20539;-79
2021/05/26 05:50:15;;;;;;;3.90;1.80;;;11.90;60.90;;;;;;5064449;28;20543;-77
2021/05/26 05:52:50;;;;;;;3.10;1.73;;;12.00;61.10;;;;;;5066702;28;20499;-79
2021/05/26 05:55:25;;;;;;;7.93;1.80;;;12.20;60.90;;;;;;5070231;28;20477;-78
2021/05/26 05:58:01;;;;;;;10.97;1.60;;;12.00;60.90;;;;;;5071465;28;20458;-79
2021/05/26 06:00:38;;;;;;;3.97;1.70;;;11.90;61.10;;;;;;5071242;28;20452;-79
2021/05/26 06:03:14;;;;;;;5.60;2.00;;;12.00;60.80;;;;;;5074325;28;20944;-78
2021/05/26 06:05:48;;;;;;;4.33;2.20;;;12.00;60.40;;;;;;5055354;28;20438;-77
2021/05/26 06:08:23;;;;;;;3.90;1.57;;;12.00;60.10;;;;;;5070011;28;20441;-79
2021/05/26 06:10:58;;;;;;;4.30;1.70;;;12.10;60.20;;;;;;5063653;28;20457;-77
2021/05/26 06:13:33;;;;;;;9.43;2.13;;;12.20;60.00;;;;;;5065610;28;20484;-77
2021/05/26 06:16:08;;;;;;;7.00;1.50;;;12.30;59.80;;;;;;5068184;28;20487;-77
2021/05/26 06:18:43;;;;;;;4.53;1.70;;;12.30;60.00;;;;;;5062326;28;20459;-78
2021/05/26 06:21:18;;;;;;;3.40;1.87;;;12.40;59.60;;;;;;5068672;28;20484;-77
2021/05/26 06:23:50;;;;;;;5.33;1.57;;;12.30;59.60;;;;;;5064470;28;20600;-78
2021/05/26 06:26:25;;;;;;;3.17;1.47;;;12.00;59.10;;;;;;5069255;28;20474;-77
2021/05/26 06:29:00;;;;;;;3.67;1.60;;;12.30;59.70;;;;;;5056659;28;20460;-79
2021/05/26 06:31:35;;;;;;;3.13;1.97;;;12.50;59.00;;;;;;5068639;28;20540;-79
2021/05/26 06:34:11;;;;;;;4.90;1.60;;;12.90;59.40;;;;;;5065377;28;20515;-79
2021/05/26 06:36:45;;;;;;;2.80;2.00;;;12.80;59.60;;;;;;5071084;28;20521;-78
2021/05/26 06:39:20;;;;;;;7.33;2.07;;;12.90;58.90;;;;;;5060806;28;20544;-80
2021/05/26 06:41:55;;;;;;;2.83;1.40;;;13.10;59.00;;;;;;5069389;28;20952;-79
2021/05/26 06:44:29;;;;;;;2.33;1.70;;;13.10;58.60;;;;;;5068861;28;20453;-80
2021/05/26 06:47:04;;;;;;;4.40;1.80;;;13.20;58.30;;;;;;5063947;28;21244;-81
2021/05/26 06:49:40;;;;;;;2.87;1.50;;;13.10;58.70;;;;;;5066752;28;20458;-81
2021/05/26 06:52:15;;;;;;;4.97;2.17;;;13.10;59.20;;;;;;5075766;28;20446;-80
2021/05/26 06:54:50;;;;;;;4.00;1.77;;;13.40;59.30;;;;;;5080541;28;20878;-80
2021/05/26 06:57:25;;;;;;;4.00;1.57;;;13.40;59.20;;;;;;5073238;28;20508;-80
2021/05/26 06:59:59;;;;;;;2.60;1.27;;;13.30;58.70;;;;;;5073284;28;20456;-81
2021/05/26 07:02:34;;;;;;;2.57;1.63;;;13.10;59.20;;;;;;5071345;28;20441;-81
2021/05/26 07:05:11;;;;;;;4.83;1.90;;;12.90;59.80;;;;;;5079906;28;20540;-81
2021/05/26 07:07:46;;;;;;;2.13;1.50;;;12.90;60.40;;;;;;5078912;28;20454;-81
2021/05/26 07:10:21;;;;;;;2.47;1.27;;;12.70;61.00;;;;;;5077908;28;20945;-80
2021/05/26 07:12:55;;;;;;;2.80;1.43;;;12.70;61.40;;;;;;5076904;28;20502;-79
2021/05/26 07:15:30;;;;;;;4.30;1.80;;;12.70;61.80;;;;;;5076839;28;20469;-80
2021/05/26 07:18:08;;;;;;;2.17;1.50;;;12.50;62.00;;;;;;5071881;28;20437;-79
2021/05/26 07:20:46;;;;;;;3.03;1.47;;;12.30;62.90;;;;;;5069853;28;20900;-79
2021/05/26 07:23:20;;;;;;;2.90;1.40;;;12.40;64.10;;;;;;5069456;28;20512;-80
2021/05/26 07:25:53;;;;;;;6.83;1.90;;;12.30;64.10;;;;;;5074239;28;20457;-79
2021/05/26 07:28:27;;;;;;;2.17;1.40;;;12.30;64.80;;;;;;5072559;28;20835;-80
2021/05/26 07:31:05;;;;;;;3.70;1.63;;;12.30;66.00;;;;;;5072923;28;20451;-81
2021/05/26 07:33:37;;;;;;;3.00;1.77;;;12.20;65.80;;;;;;5068737;28;20863;-78
2021/05/26 07:36:13;;;;;;;5.47;1.70;;;12.30;66.50;;;;;;5063449;28;21037;-79
2021/05/26 07:38:48;;;;;;;1.90;1.50;;;12.20;67.00;;;;;;5074235;28;21031;-80
2021/05/26 07:41:23;;;;;;;2.73;1.90;;;12.40;67.90;;;;;;5072810;28;20444;-80
2021/05/26 07:43:58;;;;;;;4.03;2.07;;;12.50;66.90;;;;;;5074476;28;20448;-79
2021/05/26 07:46:33;;;;;;;3.23;1.67;;;12.40;67.60;;;;;;5074131;28;20445;-80
2021/05/26 07:49:08;;;;;;;3.80;2.40;;;12.20;67.00;;;;;;5073212;28;20452;-80
2021/05/26 07:51:49;;;;;;;6.20;2.30;;;12.10;68.60;;;;;;5073169;28;20452;-80
2021/05/26 07:54:24;;;;;;;3.40;1.90;;;12.20;69.00;;;;;;5090616;28;20462;-79
2021/05/26 07:57:00;;;;;;;3.60;2.10;;;12.20;70.70;;;;;;5082975;28;20464;-81
2021/05/26 07:59:35;;;;;;;3.87;1.90;;;12.20;70.70;;;;;;5085682;28;20622;-81
2021/05/26 08:02:11;;;;;;;5.50;1.77;;;12.30;71.00;;;;;;5085419;28;20445;-80
2021/05/26 08:04:48;;;;;;;3.07;1.80;;;12.50;70.90;;;;;;5083417;28;20494;-81
2021/05/26 08:07:24;;;;;;;2.73;1.90;;;12.30;72.40;;;;;;5089085;28;20460;-81
2021/05/26 08:09:58;;;;;;;2.70;1.70;;;12.50;71.50;;;;;;5097972;28;20802;-81
2021/05/26 08:12:33;;;;;;;3.60;2.20;;;12.70;71.70;;;;;;5082379;28;20457;-79
2021/05/26 08:15:08;;;;;;;2.83;1.70;;;12.70;72.20;;;;;;5080601;28;20482;-80
2021/05/26 08:17:43;;;;;;;3.00;1.80;;;12.60;71.90;;;;;;5084815;28;20560;-80
2021/05/26 08:20:19;;;;;;;3.30;2.13;;;12.50;72.50;;;;;;5088613;28;20492;-80
2021/05/26 08:22:55;;;;;;;3.87;1.77;;;12.30;72.50;;;;;;5076297;28;20912;-80
2021/05/26 08:25:30;;;;;;;5.10;2.10;;;12.60;72.90;;;;;;5079602;28;20452;-79
2021/05/26 08:28:05;;;;;;;2.80;1.60;;;12.70;71.40;;;;;;5076242;28;20460;-79
2021/05/26 08:30:42;;;;;;;5.13;2.10;;;12.80;71.10;;;;;;5076152;28;21029;-79
2021/05/26 08:33:16;;;;;;;3.23;1.47;;;12.80;70.20;;;;;;5077466;28;20534;-81
2021/05/26 08:35:51;;;;;;;3.80;1.60;;;12.60;69.80;;;;;;5085319;28;20557;-80
2021/05/26 08:38:27;;;;;;;1.97;1.60;;;12.50;71.80;;;;;;5072885;28;20482;-81
2021/05/26 08:41:05;;;;;;;3.40;2.40;;;12.50;70.70;;;;;;5076995;28;20535;-80
2021/05/26 08:43:42;;;;;;;2.43;1.50;;;12.70;70.60;;;;;;5073439;28;20444;-80
2021/05/26 08:46:17;;;;;;;5.53;2.00;;;12.60;70.90;;;;;;5080970;28;20458;-80
2021/05/26 08:48:54;;;;;;;3.20;1.40;;;12.80;70.40;;;;;;5077338;28;20460;-80
2021/05/26 08:51:29;;;;;;;3.83;1.80;;;12.80;70.40;;;;;;5080682;28;20468;-82
2021/05/26 08:54:06;;;;;;;3.60;1.90;;;12.70;70.00;;;;;;5078477;28;20465;-80
2021/05/26 08:56:41;;;;;;;1.80;1.50;;;12.90;69.80;;;;;;5075065;28;20457;-82
2021/05/26 08:59:22;;;;;;;2.23;1.63;;;13.40;70.40;;;;;;5066820;28;20553;-81
2021/05/26 09:01:58;;;;;;;1.70;1.50;;;13.80;70.00;;;;;;5077441;28;20490;-82
2021/05/26 09:04:35;;;;;;;2.80;2.00;;;13.20;69.30;;;;;;5078109;28;20471;-86
2021/05/26 09:07:30;;;;;;;1.60;1.50;;;13.40;69.10;;;;;;5078006;28;20434;-85
2021/05/26 09:10:12;;;;;;;3.40;2.03;;;13.20;69.10;;;;;;5074198;28;20854;-84
2021/05/26 09:12:57;;;;;;;3.43;1.70;;;13.40;69.60;;;;;;5073195;28;20457;-85
2021/05/26 09:15:34;;;;;;;4.43;1.97;;;13.20;70.30;;;;;;5082488;28;20466;-84
2021/05/26 09:18:15;;;;;;;3.17;1.90;;;12.90;70.70;;;;;;5080180;28;20545;-85
2021/05/26 09:20:51;;;;;;;3.77;1.50;;;12.40;72.40;;;;;;5074161;28;20852;-81
2021/05/26 09:23:33;;;;;;;2.70;1.40;;;12.20;71.90;;;;;;5079063;28;20440;-81
2021/05/26 09:26:08;;;;;;;2.70;2.03;;;12.20;73.60;;;;;;5075351;28;20871;-83
2021/05/26 09:28:43;;;;;;;1.33;1.20;;;12.20;76.10;;;;;;5084625;28;20195;-82
2021/05/26 09:31:18;;;;;;;1.60;1.17;;;12.10;73.80;;;;;;5084367;28;20482;-83
2021/05/26 09:33:55;;;;;;;1.50;1.10;;;12.10;73.90;;;;;;5075670;28;20789;-84
2021/05/26 09:36:40;;;;;;;3.83;1.50;;;12.00;75.10;;;;;;5078825;28;20542;-86
2021/05/26 09:39:15;;;;;;;1.70;1.23;;;11.90;75.80;;;;;;5075010;28;20505;-86
2021/05/26 09:41:51;;;;;;;1.60;1.50;;;11.90;75.20;;;;;;5079277;28;20445;-84
2021/05/26 09:44:25;;;;;;;1.70;1.47;;;11.90;76.70;;;;;;5079923;28;20439;-85
2021/05/26 09:47:00;;;;;;;3.23;1.40;;;12.10;76.80;;;;;;5085596;28;20449;-85
2021/05/26 09:49:36;;;;;;;2.23;1.40;;;11.90;75.30;;;;;;5082923;28;20462;-83
2021/05/26 09:52:11;;;;;;;1.20;1.10;;;11.90;75.80;;;;;;5082986;28;20760;-81
2021/05/26 09:54:52;;;;;;;1.53;1.20;;;12.10;75.20;;;;;;5069606;28;20548;-80
2021/05/26 09:57:28;;;;;;;1.33;0.97;;;12.30;74.80;;;;;;5077326;28;20485;-82
2021/05/26 10:00:03;;;;;;;1.30;1.10;;;12.60;74.10;;;;;;5068645;28;20476;-79
2021/05/26 10:02:38;;;;;;;2.13;1.00;;;12.70;72.10;;;;;;5067358;28;20449;-82
2021/05/26 10:05:16;;;;;;;0.70;0.70;;;12.90;71.80;;;;;;5069233;28;20470;-81
2021/05/26 10:07:59;;;;;;;1.70;1.00;;;13.40;71.20;;;;;;5077576;28;20441;-83
2021/05/26 10:10:35;;;;;;;1.70;1.00;;;13.80;69.10;;;;;;5075856;28;20620;-82
2021/05/26 10:13:14;;;;;;;1.40;0.97;;;14.10;69.30;;;;;;5078068;28;20457;-81
2021/05/26 10:15:51;;;;;;;1.47;0.93;;;14.40;68.30;;;;;;5072894;28;20469;-82
2021/05/26 10:18:30;;;;;;;1.80;0.93;;;14.40;68.10;;;;;;5077360;28;20548;-82
2021/05/26 10:21:06;;;;;;;1.27;1.13;;;13.80;68.50;;;;;;5073589;28;20446;-82
2021/05/26 10:23:46;;;;;;;3.28;1.70;;;14.00;70.20;;;;;;5084279;28;20476;-86
2021/05/26 10:27:00;;;;;;;3.23;1.60;;;14.00;69.50;;;;;;5076218;28;20211;-86
2021/05/26 10:30:02;;;;;;;2.07;1.90;;;13.80;70.30;;;;;;5074054;28;20890;-87
2021/05/26 10:33:04;;;;;;;3.80;1.80;;;13.70;70.00;;;;;;5068989;28;20461;-82
2021/05/26 10:36:00;;;;;;;2.63;1.77;;;13.70;71.50;;;;;;5068353;28;20562;-82
2021/05/26 10:39:05;;;;;;;2.80;1.73;;;14.10;71.30;;;;;;5069216;28;20536;-79
2021/05/26 10:41:55;;;;;;;4.30;1.93;;;14.50;70.10;;;;;;5070784;28;20447;-81
2021/05/26 10:45:04;;;;;;;3.70;1.13;;;15.10;70.10;;;;;;5073471;28;20445;-80
2021/05/26 10:47:52;;;;;;;1.77;1.40;;;15.00;67.00;;;;;;5073039;28;20450;-81
2021/05/26 10:50:47;;;;;;;2.70;1.30;;;15.40;67.80;;;;;;5065054;28;20462;-80
2021/05/26 10:53:24;;;;;;;1.37;1.10;;;15.30;67.50;;;;;;5069061;28;20956;-81
2021/05/26 10:56:00;;;;;;;3.00;1.10;;;15.10;66.90;;;;;;5070131;28;20497;-79
2021/05/26 10:58:45;;;;;;;1.10;1.00;;;15.30;66.20;;;;;;5065757;28;20533;-80
2021/05/26 11:01:20;;;;;;;3.70;1.43;;;15.80;66.50;;;;;;5069691;28;20438;-82
2021/05/26 11:03:54;;;;;;;2.03;1.20;;;15.50;66.10;;;;;;5069454;28;20490;-79
2021/05/26 11:06:45;;;;;;;2.17;1.33;;;15.30;65.90;;;;;;5073971;28;20549;-82
2021/05/26 11:09:19;;;;;;;1.43;1.10;;;15.90;66.30;;;;;;5069185;28;20541;-81
2021/05/26 11:11:55;;;;;;;1.60;1.20;;;16.00;65.90;;;;;;5073339;28;20482;-80
2021/05/26 11:14:42;;;;;;;1.77;1.20;;;16.00;66.10;;;;;;5070875;28;20455;-79
2021/05/26 11:17:36;;;;;;;2.37;1.40;;;15.90;65.00;;;;;;5076965;28;20458;-78
2021/05/26 11:20:30;;;;;;;2.90;1.60;;;16.20;65.90;;;;;;5066903;28;20540;-80
2021/05/26 11:23:16;;;;;;;2.97;1.60;;;16.00;66.10;;;;;;5066209;28;20454;-80
2021/05/26 11:25:59;;;;;;;2.93;1.53;;;15.80;66.70;;;;;;5074367;28;20485;-81
2021/05/26 11:28:37;;;;;;;2.30;1.80;;;15.90;65.60;;;;;;5077418;28;20518;-85
2021/05/26 11:31:13;;;;;;;2.90;2.10;;;15.90;66.70;;;;;;5082349;28;20448;-81
2021/05/26 11:34:07;;;;;;;2.67;2.10;;;15.70;66.20;;;;;;5079097;28;20454;-85
2021/05/26 11:36:51;;;;;;;3.70;1.80;;;16.30;66.80;;;;;;5091965;28;20444;-82
2021/05/26 11:39:28;;;;;;;2.40;1.60;;;16.40;66.10;;;;;;5095138;28;20478;-84
2021/05/26 11:42:14;;;;;;;2.23;1.40;;;15.90;66.10;;;;;;5096752;28;20447;-81
2021/05/26 11:44:59;;;;;;;2.90;2.40;;;15.00;67.00;;;;;;5095274;28;20454;-83
2021/05/26 11:47:44;;;;;;;2.73;1.80;;;14.20;66.80;;;;;;5083329;28;20452;-80
2021/05/26 11:50:33;;;;;;;5.70;1.77;;;13.60;68.60;;;;;;5081959;28;20477;-80
2021/05/26 11:53:22;;;;;;;3.60;2.30;;;13.30;71.00;;;;;;5076698;28;20489;-81
2021/05/26 11:56:05;;;;;;;3.23;2.10;;;12.80;70.40;;;;;;5052974;28;20477;-80
2021/05/26 11:58:42;;;;;;;3.30;2.10;;;12.70;71.80;;;;;;5063831;28;21179;-85
2021/05/26 12:01:32;;;;;;;5.30;2.40;;;12.70;72.70;;;;;;5064881;28;20452;-85
2021/05/26 12:04:22;;;;;;;2.23;1.67;;;12.90;73.50;;;;;;5065998;28;20438;-85
2021/05/26 12:06:59;;;;;;;3.80;1.90;;;13.20;73.10;;;;;;5062678;28;20551;-75
2021/05/26 12:09:35;;;;;;;2.37;1.90;;;13.10;72.10;;;;;;5052396;28;20456;-80
2021/05/26 12:12:22;;;;;;;2.37;2.10;;;13.20;71.90;;;;;;5052122;28;20868;-80
2021/05/26 12:14:58;;;;;;;4.30;2.20;;;13.40;72.30;;;;;;5049901;28;22726;-76
2021/05/26 12:17:36;;;;;;;3.97;1.67;;;13.60;70.80;;;;;;5046785;28;20466;-77
2021/05/26 12:20:12;;;;;;;2.93;1.80;;;13.60;70.10;;;;;;5051689;28;20455;-78
2021/05/26 12:22:53;;;;;;;3.53;2.03;;;14.00;69.40;;;;;;5047792;28;20465;-77
2021/05/26 12:25:40;;;;;;;3.87;2.13;;;14.20;69.70;;;;;;5047973;28;20971;-84
2021/05/26 12:28:26;;;;;;;2.20;1.53;;;14.50;68.00;;;;;;5047587;28;20489;-82
2021/05/26 12:31:01;;;;;;;2.70;1.47;;;15.20;68.00;;;;;;5051247;28;20548;-79
2021/05/26 12:33:46;;;;;;;4.00;1.83;;;15.40;66.90;;;;;;5047737;28;20487;-82
2021/05/26 12:36:22;;;;;;;2.80;1.90;;;15.30;67.40;;;;;;5047693;28;20506;-79
2021/05/26 12:39:03;;;;;;;5.53;2.40;;;15.50;66.50;;;;;;5053591;28;20484;-81
2021/05/26 12:41:40;;;;;;;4.83;2.80;;;15.00;66.30;;;;;;5051022;28;20496;-80
2021/05/26 12:44:28;;;;;;;5.00;2.60;;;14.90;66.90;;;;;;5053728;28;20968;-80
2021/05/26 12:47:04;;;;;;;4.30;2.00;;;14.90;66.40;;;;;;5042699;28;20470;-79
2021/05/26 12:49:48;;;;;;;3.10;1.90;;;14.80;66.50;;;;;;5043234;28;20487;-78
2021/05/26 12:52:31;;;;;;;3.87;2.23;;;14.40;66.30;;;;;;5041471;28;20463;-78
2021/05/26 12:55:09;;;;;;;2.70;1.97;;;14.20;67.20;;;;;;5049019;28;20472;-77
2021/05/26 12:57:46;;;;;;;3.23;2.93;;;14.00;67.40;;;;;;5045171;28;20451;-78
2021/05/26 13:00:23;;;;;;;4.27;1.80;;;13.70;67.30;;;;;;5051280;28;20451;-80
2021/05/26 13:03:10;;;;;;;2.37;2.10;;;13.60;67.60;;;;;;5045082;28;20454;-79
2021/05/26 13:05:48;;;;;;;3.60;2.40;;;13.80;68.20;;;;;;5047897;28;20511;-78
2021/05/26 13:08:22;;;;;;;2.90;1.80;;;13.80;68.60;;;;;;5047697;28;20318;-88
2021/05/26 13:11:00;;;;;;;3.43;2.07;;;13.70;67.50;;;;;;5057861;28;20452;-83
2021/05/26 13:13:37;;;;;;;1.87;1.43;;;13.80;67.70;;;;;;5059542;28;21028;-82
2021/05/26 13:16:14;;;;;;;3.80;2.30;;;14.00;67.30;;;;;;5051824;28;20451;-87
2021/05/26 13:18:46;;;;;;;2.80;2.13;;;14.60;68.50;;;;;;5051190;28;20213;-86
2021/05/26 13:21:28;;;;;;;4.60;1.90;;;14.30;67.00;;;;;;5086743;28;20524;-82
2021/05/26 13:24:02;;;;;;;2.40;2.00;;;13.90;67.00;;;;;;5053375;28;20459;-80
2021/05/26 13:26:37;;;;;;;2.43;1.27;;;13.80;66.40;;;;;;5051857;28;20445;-79
2021/05/26 13:29:13;;;;;;;3.23;1.50;;;14.00;67.30;;;;;;5053261;28;20453;-81
2021/05/26 13:31:48;;;;;;;1.73;1.63;;;14.60;66.40;;;;;;5054574;28;20513;-81
2021/05/26 13:34:29;;;;;;;2.37;1.80;;;14.40;65.30;;;;;;5059128;28;20447;-82
2021/05/26 13:37:11;;;;;;;2.97;1.50;;;14.10;65.70;;;;;;5061313;28;20981;-85
2021/05/26 13:39:46;;;;;;;2.70;1.40;;;14.10;65.80;;;;;;5054812;28;20476;-83
2021/05/26 13:42:20;;;;;;;4.00;1.60;;;14.30;65.30;;;;;;5062596;28;20466;-84
2021/05/26 13:44:55;;;;;;;3.80;2.17;;;14.70;66.00;;;;;;5047375;28;20905;-79
2021/05/26 13:47:30;;;;;;;2.90;1.80;;;15.00;66.00;;;;;;5049922;28;20449;-79